createdAt,value
2018-06-14T00:00:44.007Z,65.08
2018-06-14T00:01:43.992Z,65.08
2018-06-14T00:02:43.976Z,65.08
2018-06-14T00:03:43.961Z,64.89
2018-06-14T00:04:43.943Z,65.84
2018-06-14T00:05:43.929Z,65.46
2018-06-14T00:06:43.911Z,64.89
2018-06-14T00:07:43.894Z,64.89
2018-06-14T00:08:43.876Z,64.50
2018-06-14T00:09:43.863Z,64.31
2018-06-14T00:10:43.849Z,64.79
2018-06-14T00:11:43.886Z,64.40
2018-06-14T00:12:43.813Z,64.89
2018-06-14T00:13:43.799Z,65.26
2018-06-14T00:14:43.784Z,64.50
2018-06-14T00:15:43.764Z,65.08
2018-06-14T00:16:43.750Z,64.69
2018-06-14T00:17:43.734Z,64.69
2018-06-14T00:18:43.716Z,64.59
2018-06-14T00:19:43.702Z,64.98
2018-06-14T00:20:43.684Z,64.79
2018-06-14T00:21:43.670Z,64.02
2018-06-14T00:22:43.652Z,64.50
2018-06-14T00:23:43.636Z,64.50
2018-06-14T00:24:43.620Z,63.83
2018-06-14T00:25:43.616Z,63.45
2018-06-14T00:26:43.588Z,63.73
2018-06-14T00:27:43.572Z,63.73
2018-06-14T00:28:43.556Z,63.92
2018-06-14T00:29:43.538Z,64.40
2018-06-14T00:30:43.524Z,64.59
2018-06-14T00:31:43.507Z,63.73
2018-06-14T00:32:43.491Z,64.02
2018-06-14T00:33:43.475Z,64.40
2018-06-14T00:34:43.459Z,63.92
2018-06-14T00:35:43.444Z,63.54
2018-06-14T00:36:43.434Z,63.64
2018-06-14T00:37:43.415Z,63.64
2018-06-14T00:38:43.400Z,63.73
2018-06-14T00:39:43.382Z,64.31
2018-06-14T00:40:43.362Z,63.92
2018-06-14T00:41:43.346Z,63.73
2018-06-14T00:42:43.338Z,64.31
2018-06-14T00:43:43.314Z,64.50
2018-06-14T00:44:43.296Z,64.02
2018-06-14T00:45:43.282Z,64.59
2018-06-14T00:46:43.265Z,64.02
2018-06-14T00:47:43.248Z,63.35
2018-06-14T00:48:43.233Z,64.02
2018-06-14T00:49:43.216Z,63.45
2018-06-14T00:50:43.200Z,63.92
2018-06-14T00:51:43.185Z,63.73
2018-06-14T00:52:43.169Z,63.92
2018-06-14T00:53:43.152Z,64.59
2018-06-14T00:54:43.136Z,64.59
2018-06-14T00:55:43.121Z,64.22
2018-06-14T00:56:43.104Z,64.79
2018-06-14T00:57:43.088Z,64.12
2018-06-14T00:58:43.073Z,64.79
2018-06-14T00:59:43.060Z,64.31
2018-06-14T01:00:43.039Z,64.89
2018-06-14T01:01:43.025Z,64.31
2018-06-14T01:02:43.008Z,64.40
2018-06-14T01:03:42.992Z,64.40
2018-06-14T01:04:42.974Z,65.08
2018-06-14T01:05:42.958Z,64.31
2018-06-14T01:06:42.945Z,64.02
2018-06-14T01:07:42.929Z,63.92
2018-06-14T01:08:42.910Z,64.31
2018-06-14T01:09:42.894Z,64.69
2018-06-14T01:10:42.880Z,64.31
2018-06-14T01:11:42.864Z,64.50
2018-06-14T01:12:42.847Z,64.50
2018-06-14T01:13:42.830Z,63.73
2018-06-14T01:14:42.814Z,63.45
2018-06-14T01:15:42.800Z,63.73
2018-06-14T01:16:42.784Z,63.16
2018-06-14T01:17:42.764Z,63.26
2018-06-14T01:18:42.749Z,63.45
2018-06-14T01:19:42.741Z,62.87
2018-06-14T01:20:42.717Z,63.45
2018-06-14T01:21:42.703Z,63.16
2018-06-14T01:22:42.693Z,63.64
2018-06-14T01:23:42.667Z,63.60
2018-06-14T01:24:42.651Z,63.03
2018-06-14T01:25:42.635Z,63.32
2018-06-14T01:26:42.621Z,63.42
2018-06-14T01:27:42.606Z,63.73
2018-06-14T01:28:42.586Z,63.22
2018-06-14T01:29:42.573Z,62.74
2018-06-14T01:30:42.555Z,63.35
2018-06-14T01:31:42.538Z,63.51
2018-06-14T01:32:42.533Z,63.22
2018-06-14T01:33:42.506Z,62.65
2018-06-14T01:34:42.492Z,62.96
2018-06-14T01:35:42.473Z,62.77
2018-06-14T01:36:42.457Z,62.93
2018-06-14T01:37:42.442Z,63.16
2018-06-14T01:38:42.427Z,62.74
2018-06-14T01:39:42.410Z,62.96
2018-06-14T01:40:42.396Z,62.65
2018-06-14T01:41:42.379Z,63.03
2018-06-14T01:42:42.364Z,62.96
2018-06-14T01:43:42.345Z,63.03
2018-06-14T01:44:42.328Z,63.32
2018-06-14T01:45:42.312Z,63.60
2018-06-14T01:46:42.299Z,63.60
2018-06-14T01:47:42.280Z,63.60
2018-06-14T01:48:42.261Z,62.74
2018-06-14T01:49:42.246Z,62.93
2018-06-14T01:50:42.230Z,62.84
2018-06-14T01:51:42.214Z,62.55
2018-06-14T01:52:42.199Z,62.93
2018-06-14T01:53:42.184Z,62.55
2018-06-14T01:54:42.165Z,62.93
2018-06-14T01:55:42.149Z,62.55
2018-06-14T01:56:42.131Z,63.13
2018-06-14T01:57:42.117Z,62.46
2018-06-14T01:58:42.099Z,62.55
2018-06-14T01:59:42.086Z,62.26
2018-06-14T02:00:42.066Z,62.84
2018-06-14T02:01:42.052Z,62.84
2018-06-14T02:02:42.039Z,62.36
2018-06-14T02:03:42.070Z,62.36
2018-06-14T02:04:42.003Z,62.55
2018-06-14T02:05:41.996Z,62.26
2018-06-14T02:06:41.968Z,62.07
2018-06-14T02:07:41.954Z,61.88
2018-06-14T02:08:41.937Z,62.55
2018-06-14T02:09:41.922Z,62.46
2018-06-14T02:10:41.906Z,61.63
2018-06-14T02:11:41.890Z,62.46
2018-06-14T02:12:41.874Z,61.43
2018-06-14T02:13:41.855Z,61.53
2018-06-14T02:14:41.842Z,61.11
2018-06-14T02:15:41.825Z,61.50
2018-06-14T02:16:41.807Z,61.69
2018-06-14T02:17:41.791Z,61.11
2018-06-14T02:18:41.779Z,61.40
2018-06-14T02:19:41.759Z,61.21
2018-06-14T02:20:41.742Z,60.93
2018-06-14T02:21:41.727Z,61.40
2018-06-14T02:22:41.710Z,61.31
2018-06-14T02:23:41.694Z,61.60
2018-06-14T02:24:41.676Z,61.02
2018-06-14T02:25:41.660Z,61.50
2018-06-14T02:26:41.646Z,61.11
2018-06-14T02:27:41.627Z,61.50
2018-06-14T02:28:41.611Z,61.40
2018-06-14T02:29:41.597Z,60.64
2018-06-14T02:30:41.577Z,61.40
2018-06-14T02:31:41.565Z,61.21
2018-06-14T02:32:41.547Z,61.11
2018-06-14T02:33:41.532Z,61.50
2018-06-14T02:34:41.512Z,61.79
2018-06-14T02:35:41.496Z,61.50
2018-06-14T02:36:41.489Z,61.21
2018-06-14T02:37:41.464Z,61.31
2018-06-14T02:38:41.451Z,60.25
2018-06-14T02:39:41.435Z,60.44
2018-06-14T02:40:41.414Z,61.11
2018-06-14T02:41:41.397Z,60.64
2018-06-14T02:42:41.384Z,61.40
2018-06-14T02:43:41.364Z,61.11
2018-06-14T02:44:41.349Z,61.21
2018-06-14T02:45:41.333Z,61.31
2018-06-14T02:46:41.317Z,61.02
2018-06-14T02:47:41.301Z,61.69
2018-06-14T02:48:41.283Z,62.10
2018-06-14T02:49:41.268Z,61.15
2018-06-14T02:50:41.251Z,60.76
2018-06-14T02:51:41.234Z,61.31
2018-06-14T02:52:41.217Z,60.73
2018-06-14T02:53:41.201Z,61.21
2018-06-14T02:54:41.186Z,61.40
2018-06-14T02:55:41.170Z,61.11
2018-06-14T02:56:41.152Z,61.11
2018-06-14T02:57:41.137Z,61.40
2018-06-14T02:58:41.121Z,61.21
2018-06-14T02:59:41.107Z,61.60
2018-06-14T03:00:41.086Z,61.40
2018-06-14T03:01:41.070Z,61.79
2018-06-14T03:02:41.054Z,61.40
2018-06-14T03:03:41.042Z,61.88
2018-06-14T03:04:41.025Z,62.46
2018-06-14T03:05:41.005Z,62.17
2018-06-14T03:06:40.994Z,62.55
2018-06-14T03:07:40.975Z,61.88
2018-06-14T03:08:40.958Z,61.88
2018-06-14T03:09:40.943Z,62.46
2018-06-14T03:10:40.921Z,63.03
2018-06-14T03:11:40.905Z,62.93
2018-06-14T03:12:40.892Z,62.36
2018-06-14T03:13:40.878Z,62.26
2018-06-14T03:14:40.861Z,62.81
2018-06-14T03:15:40.843Z,62.33
2018-06-14T03:16:40.861Z,62.90
2018-06-14T03:17:40.805Z,62.62
2018-06-14T03:18:40.791Z,62.93
2018-06-14T03:19:40.775Z,62.84
2018-06-14T03:20:40.756Z,62.26
2018-06-14T03:21:40.742Z,62.46
2018-06-14T03:22:40.736Z,62.74
2018-06-14T03:23:40.710Z,62.33
2018-06-14T03:24:40.690Z,62.90
2018-06-14T03:25:40.694Z,62.90
2018-06-14T03:26:40.656Z,62.62
2018-06-14T03:27:40.641Z,63.32
2018-06-14T03:28:40.622Z,63.48
2018-06-14T03:29:40.606Z,62.62
2018-06-14T03:30:40.593Z,63.10
2018-06-14T03:31:40.573Z,63.00
2018-06-14T03:32:40.557Z,63.48
2018-06-14T03:33:40.539Z,63.10
2018-06-14T03:34:40.526Z,63.29
2018-06-14T03:35:40.506Z,63.19
2018-06-14T03:36:40.490Z,63.19
2018-06-14T03:37:40.475Z,63.48
2018-06-14T03:38:40.454Z,63.67
2018-06-14T03:39:40.447Z,63.67
2018-06-14T03:40:40.454Z,64.53
2018-06-14T03:41:40.405Z,64.63
2018-06-14T03:42:40.387Z,64.82
2018-06-14T03:43:40.370Z,64.25
2018-06-14T03:44:40.354Z,64.34
2018-06-14T03:45:40.345Z,64.92
2018-06-14T03:46:40.321Z,64.92
2018-06-14T03:47:40.305Z,64.82
2018-06-14T03:48:40.286Z,65.01
2018-06-14T03:49:40.271Z,64.15
2018-06-14T03:50:40.256Z,65.30
2018-06-14T03:51:40.234Z,65.11
2018-06-14T03:52:40.220Z,65.01
2018-06-14T03:53:40.203Z,65.30
2018-06-14T03:54:40.183Z,64.72
2018-06-14T03:55:40.174Z,65.49
2018-06-14T03:56:40.151Z,65.20
2018-06-14T03:57:40.133Z,65.68
2018-06-14T03:58:40.116Z,65.58
2018-06-14T03:59:40.097Z,65.65
2018-06-14T04:00:40.085Z,65.94
2018-06-14T04:01:40.071Z,65.55
2018-06-14T04:02:40.048Z,65.58
2018-06-14T04:03:40.037Z,65.68
2018-06-14T04:04:40.011Z,65.17
2018-06-14T04:05:39.998Z,65.58
2018-06-14T04:06:39.981Z,66.35
2018-06-14T04:07:39.964Z,66.16
2018-06-14T04:08:39.944Z,65.78
2018-06-14T04:09:39.929Z,65.74
2018-06-14T04:10:39.911Z,65.94
2018-06-14T04:11:39.894Z,65.74
2018-06-14T04:12:39.875Z,65.84
2018-06-14T04:13:39.858Z,65.65
2018-06-14T04:14:39.844Z,65.74
2018-06-14T04:15:39.824Z,66.80
2018-06-14T04:16:39.804Z,66.51
2018-06-14T04:17:39.788Z,66.41
2018-06-14T04:18:39.833Z,66.80
2018-06-14T04:19:39.756Z,66.80
2018-06-14T04:20:39.738Z,65.74
2018-06-14T04:21:39.718Z,66.32
2018-06-14T04:22:39.703Z,66.03
2018-06-14T04:23:39.685Z,65.74
2018-06-14T04:24:39.677Z,65.45
2018-06-14T04:25:39.651Z,65.55
2018-06-14T04:26:39.633Z,65.74
2018-06-14T04:27:39.618Z,65.65
2018-06-14T04:28:39.598Z,66.99
2018-06-14T04:29:39.582Z,66.03
2018-06-14T04:30:39.569Z,64.88
2018-06-14T04:31:39.548Z,65.45
2018-06-14T04:32:39.531Z,64.59
2018-06-14T04:33:39.515Z,65.17
2018-06-14T04:34:39.499Z,65.55
2018-06-14T04:35:39.479Z,64.98
2018-06-14T04:36:39.463Z,64.98
2018-06-14T04:37:39.445Z,66.03
2018-06-14T04:38:39.429Z,65.65
2018-06-14T04:39:39.413Z,65.45
2018-06-14T04:40:39.394Z,64.98
2018-06-14T04:41:39.384Z,64.98
2018-06-14T04:42:39.361Z,65.55
2018-06-14T04:43:39.350Z,65.26
2018-06-14T04:44:39.326Z,65.55
2018-06-14T04:45:39.308Z,65.26
2018-06-14T04:46:39.297Z,65.01
2018-06-14T04:47:39.275Z,64.92
2018-06-14T04:48:39.256Z,64.34
2018-06-14T04:49:39.240Z,63.67
2018-06-14T04:50:39.223Z,62.90
2018-06-14T04:51:39.205Z,62.90
2018-06-14T04:52:39.186Z,62.81
2018-06-14T04:53:39.170Z,63.48
2018-06-14T04:54:39.154Z,62.93
2018-06-14T04:55:39.137Z,63.32
2018-06-14T04:56:39.122Z,63.32
2018-06-14T04:57:39.106Z,62.74
2018-06-14T04:58:39.091Z,62.74
2018-06-14T04:59:39.069Z,63.22
2018-06-14T05:00:39.050Z,63.32
2018-06-14T05:01:39.034Z,63.13
2018-06-14T05:02:39.019Z,62.36
2018-06-14T05:03:39.004Z,62.36
2018-06-14T05:04:38.983Z,62.26
2018-06-14T05:05:38.968Z,62.36
2018-06-14T05:06:38.950Z,61.31
2018-06-14T05:07:38.932Z,61.21
2018-06-14T05:08:38.928Z,61.60
2018-06-14T05:09:38.919Z,62.46
2018-06-14T05:10:38.884Z,62.39
2018-06-14T05:11:38.868Z,62.59
2018-06-14T05:12:38.854Z,61.43
2018-06-14T05:13:38.853Z,61.63
2018-06-14T05:14:38.819Z,61.34
2018-06-14T05:15:38.802Z,61.34
2018-06-14T05:16:38.783Z,62.87
2018-06-14T05:17:38.768Z,61.43
2018-06-14T05:18:38.751Z,62.39
2018-06-14T05:19:38.739Z,64.12
2018-06-14T05:20:38.718Z,62.87
2018-06-14T05:21:38.700Z,62.87
2018-06-14T05:22:38.738Z,62.04
2018-06-14T05:23:38.669Z,61.46
2018-06-14T05:24:38.654Z,61.75
2018-06-14T05:25:38.635Z,61.66
2018-06-14T05:26:38.618Z,61.94
2018-06-14T05:27:38.603Z,60.79
2018-06-14T05:28:38.587Z,59.74
2018-06-14T05:29:38.590Z,59.64
2018-06-14T05:30:38.559Z,60.70
2018-06-14T05:31:38.543Z,61.37
2018-06-14T05:32:38.520Z,59.36
2018-06-14T05:33:38.506Z,59.55
2018-06-14T05:34:38.498Z,60.03
2018-06-14T05:35:38.474Z,60.41
2018-06-14T05:36:38.456Z,60.89
2018-06-14T05:37:38.445Z,58.81
2018-06-14T05:38:38.424Z,58.78
2018-06-14T05:39:38.413Z,59.09
2018-06-14T05:40:38.398Z,58.62
2018-06-14T05:41:38.413Z,58.52
2018-06-14T05:42:38.360Z,58.81
2018-06-14T05:43:38.346Z,59.77
2018-06-14T05:44:38.387Z,61.30
2018-06-14T05:45:38.313Z,59.19
2018-06-14T05:46:38.299Z,59.19
2018-06-14T05:47:38.305Z,58.14
2018-06-14T05:48:38.263Z,57.85
2018-06-14T05:49:38.253Z,58.14
2018-06-14T05:50:38.238Z,58.42
2018-06-14T05:51:38.221Z,57.65
2018-06-14T05:52:38.203Z,58.23
2018-06-14T05:53:38.187Z,58.81
2018-06-14T05:54:38.171Z,57.46
2018-06-14T05:55:38.158Z,58.81
2018-06-14T05:56:38.139Z,58.62
2018-06-14T05:57:38.124Z,57.46
2018-06-14T05:58:38.110Z,58.33
2018-06-14T05:59:38.092Z,58.17
2018-06-14T06:00:38.077Z,57.59
2018-06-14T06:01:38.061Z,57.97
2018-06-14T06:02:38.047Z,56.53
2018-06-14T06:03:38.033Z,56.15
2018-06-14T06:04:38.015Z,56.44
2018-06-14T06:05:37.998Z,56.24
2018-06-14T06:06:37.985Z,57.59
2018-06-14T06:07:37.971Z,56.34
2018-06-14T06:08:37.952Z,55.57
2018-06-14T06:09:37.938Z,54.52
2018-06-14T06:10:37.922Z,55.19
2018-06-14T06:11:37.922Z,54.90
2018-06-14T06:12:37.891Z,55.77
2018-06-14T06:13:37.875Z,56.24
2018-06-14T06:14:37.864Z,55.86
2018-06-14T06:15:37.847Z,56.05
2018-06-14T06:16:37.829Z,55.57
2018-06-14T06:17:37.814Z,54.90
2018-06-14T06:18:37.803Z,54.52
2018-06-14T06:19:37.784Z,55.29
2018-06-14T06:20:37.770Z,56.34
2018-06-14T06:21:37.755Z,54.80
2018-06-14T06:22:37.739Z,54.93
2018-06-14T06:23:37.724Z,54.80
2018-06-14T06:24:37.708Z,54.25
2018-06-14T06:25:37.697Z,55.22
2018-06-14T06:26:37.680Z,55.02
2018-06-14T06:27:37.670Z,55.41
2018-06-14T06:28:37.648Z,56.08
2018-06-14T06:29:37.633Z,56.18
2018-06-14T06:30:37.621Z,57.52
2018-06-14T06:31:37.608Z,57.50
2018-06-14T06:32:37.587Z,57.97
2018-06-14T06:33:37.573Z,57.50
2018-06-14T06:34:37.564Z,58.17
2018-06-14T06:35:37.543Z,58.17
2018-06-14T06:36:37.527Z,58.26
2018-06-14T06:37:37.543Z,58.74
2018-06-14T06:38:37.513Z,58.64
2018-06-14T06:39:37.484Z,58.36
2018-06-14T06:40:37.469Z,58.45
2018-06-14T06:41:37.454Z,59.22
2018-06-14T06:42:37.440Z,57.30
2018-06-14T06:43:37.425Z,55.38
2018-06-14T06:44:37.409Z,56.44
2018-06-14T06:45:37.394Z,57.68
2018-06-14T06:46:37.382Z,58.64
2018-06-14T06:47:37.367Z,58.45
2018-06-14T06:48:37.349Z,58.64
2018-06-14T06:49:37.340Z,58.26
2018-06-14T06:50:37.320Z,58.87
2018-06-14T06:51:37.307Z,58.94
2018-06-14T06:52:37.288Z,57.40
2018-06-14T06:53:37.275Z,56.82
2018-06-14T06:54:37.262Z,57.62
2018-06-14T06:55:37.247Z,57.88
2018-06-14T06:56:37.230Z,57.52
2018-06-14T06:57:37.217Z,57.40
2018-06-14T06:58:37.212Z,57.50
2018-06-14T06:59:37.186Z,56.66
2018-06-14T07:00:37.173Z,57.23
2018-06-14T07:01:37.157Z,57.62
2018-06-14T07:02:37.142Z,56.27
2018-06-14T07:03:37.128Z,55.99
2018-06-14T07:04:37.115Z,55.02
2018-06-14T07:05:37.098Z,54.64
2018-06-14T07:06:37.094Z,53.90
2018-06-14T07:07:37.073Z,53.68
2018-06-14T07:08:37.054Z,53.97
2018-06-14T07:09:37.038Z,53.87
2018-06-14T07:10:37.034Z,53.78
2018-06-14T07:11:37.013Z,53.20
2018-06-14T07:12:36.995Z,53.68
2018-06-14T07:13:37.007Z,52.72
2018-06-14T07:14:36.969Z,52.14
2018-06-14T07:15:37.049Z,53.58
2018-06-14T07:16:36.938Z,54.28
2018-06-14T07:17:36.924Z,52.75
2018-06-14T07:18:36.908Z,52.75
2018-06-14T07:19:36.894Z,53.70
2018-06-14T07:20:36.880Z,53.74
2018-06-14T07:21:36.962Z,51.91
2018-06-14T07:22:36.852Z,53.45
2018-06-14T07:23:36.852Z,50.56
2018-06-14T07:24:36.822Z,49.60
2018-06-14T07:25:36.809Z,50.95
2018-06-14T07:26:36.796Z,51.43
2018-06-14T07:27:36.787Z,52.00
2018-06-14T07:28:36.768Z,52.48
2018-06-14T07:29:36.751Z,51.53
2018-06-14T07:30:36.737Z,52.39
2018-06-14T07:31:36.723Z,51.81
2018-06-14T07:32:36.707Z,51.33
2018-06-14T07:33:36.699Z,51.33
2018-06-14T07:34:36.680Z,52.58
2018-06-14T07:35:36.666Z,52.68
2018-06-14T07:36:36.653Z,52.87
2018-06-14T07:37:36.651Z,52.97
2018-06-14T07:38:36.626Z,52.08
2018-06-14T07:39:36.612Z,53.64
2018-06-14T07:40:36.596Z,52.68
2018-06-14T07:41:36.583Z,53.74
2018-06-14T07:42:36.567Z,51.62
2018-06-14T07:43:36.565Z,51.53
2018-06-14T07:44:36.544Z,52.10
2018-06-14T07:45:36.526Z,52.48
2018-06-14T07:46:36.519Z,52.97
2018-06-14T07:47:36.500Z,52.39
2018-06-14T07:48:36.485Z,52.75
2018-06-14T07:49:36.474Z,53.52
2018-06-14T07:50:36.457Z,52.75
2018-06-14T07:51:36.453Z,53.32
2018-06-14T07:52:36.430Z,53.70
2018-06-14T07:53:36.416Z,53.03
2018-06-14T07:54:36.400Z,53.54
2018-06-14T07:55:36.389Z,53.25
2018-06-14T07:56:36.373Z,51.53
2018-06-14T07:57:36.361Z,52.77
2018-06-14T07:58:36.347Z,53.06
2018-06-14T07:59:36.335Z,51.33
2018-06-14T08:00:36.318Z,51.81
2018-06-14T08:01:36.315Z,51.35
2018-06-14T08:02:36.292Z,51.64
2018-06-14T08:03:36.279Z,50.59
2018-06-14T08:04:36.263Z,51.64
2018-06-14T08:05:36.255Z,50.97
2018-06-14T08:06:36.300Z,50.49
2018-06-14T08:07:36.225Z,50.23
2018-06-14T08:08:36.210Z,50.13
2018-06-14T08:09:36.201Z,50.04
2018-06-14T08:10:36.184Z,49.84
2018-06-14T08:11:36.172Z,50.81
2018-06-14T08:12:36.160Z,49.79
2018-06-14T08:13:36.202Z,48.21
2018-06-14T08:14:36.132Z,44.93
2018-06-14T08:15:36.120Z,44.06
2018-06-14T08:16:36.105Z,44.71
2018-06-14T08:17:36.091Z,45.20
2018-06-14T08:18:36.083Z,45.68
2018-06-14T08:19:36.066Z,46.23
2018-06-14T08:20:36.054Z,47.10
2018-06-14T08:21:36.041Z,47.36
2018-06-14T08:22:36.028Z,47.08
2018-06-14T08:23:36.014Z,47.53
2018-06-14T08:24:36.002Z,48.40
2018-06-14T08:25:35.993Z,49.27
2018-06-14T08:26:35.978Z,50.23
2018-06-14T08:27:35.970Z,49.36
2018-06-14T08:28:35.951Z,49.07
2018-06-14T08:29:35.937Z,48.79
2018-06-14T08:30:35.930Z,48.49
2018-06-14T08:31:35.915Z,49.36
2018-06-14T08:32:35.908Z,48.40
2018-06-14T08:33:35.891Z,48.33
2018-06-14T08:34:35.877Z,46.71
2018-06-14T08:35:35.864Z,46.33
2018-06-14T08:36:35.852Z,46.35
2018-06-14T08:37:35.840Z,47.17
2018-06-14T08:38:35.830Z,44.56
2018-06-14T08:39:35.818Z,44.10
2018-06-14T08:40:35.808Z,41.61
2018-06-14T08:41:35.797Z,42.02
2018-06-14T08:42:35.791Z,41.35
2018-06-14T08:43:35.777Z,41.23
2018-06-14T08:44:35.769Z,43.06
2018-06-14T08:45:35.760Z,42.68
2018-06-14T08:46:35.749Z,41.81
2018-06-14T08:47:35.741Z,41.60
2018-06-14T08:48:35.730Z,42.94
2018-06-14T08:49:35.721Z,43.24
2018-06-14T08:50:35.713Z,43.14
2018-06-14T08:51:35.710Z,43.43
2018-06-14T08:52:35.697Z,42.08
2018-06-14T08:53:35.684Z,43.43
2018-06-14T08:54:35.678Z,43.91
2018-06-14T08:55:35.667Z,43.72
2018-06-14T08:56:35.657Z,44.20
2018-06-14T08:57:35.652Z,42.18
2018-06-14T08:58:35.644Z,41.78
2018-06-14T08:59:35.640Z,41.15
2018-06-14T09:00:35.617Z,39.41
2018-06-14T09:01:35.611Z,39.03
2018-06-14T09:02:35.604Z,39.70
2018-06-14T09:03:35.590Z,38.93
2018-06-14T09:04:35.581Z,38.18
2018-06-14T09:05:35.572Z,39.24
2018-06-14T09:06:35.566Z,38.10
2018-06-14T09:07:35.559Z,36.76
2018-06-14T09:08:35.547Z,37.63
2018-06-14T09:09:35.537Z,36.49
2018-06-14T09:10:35.531Z,35.25
2018-06-14T09:11:35.519Z,36.04
2018-06-14T09:12:35.514Z,36.74
2018-06-14T09:13:35.509Z,35.01
2018-06-14T09:14:35.495Z,35.38
2018-06-14T09:15:35.488Z,33.64
2018-06-14T09:16:35.481Z,34.80
2018-06-14T09:17:35.473Z,34.96
2018-06-14T09:18:35.465Z,36.88
2018-06-14T09:19:35.460Z,37.94
2018-06-14T09:20:35.448Z,37.07
2018-06-14T09:21:35.440Z,38.35
2018-06-14T09:22:35.435Z,36.90
2018-06-14T09:23:35.424Z,36.80
2018-06-14T09:24:35.417Z,36.82
2018-06-14T09:25:35.409Z,38.00
2018-06-14T09:26:35.401Z,35.57
2018-06-14T09:27:35.398Z,34.70
2018-06-14T09:28:35.385Z,34.12
2018-06-14T09:29:35.376Z,35.19
2018-06-14T09:30:35.369Z,35.96
2018-06-14T09:31:35.366Z,34.51
2018-06-14T09:32:35.353Z,35.28
2018-06-14T09:33:35.347Z,34.14
2018-06-14T09:34:35.340Z,33.67
2018-06-14T09:35:35.337Z,33.49
2018-06-14T09:36:35.325Z,33.20
2018-06-14T09:37:35.320Z,32.44
2018-06-14T09:38:35.312Z,31.57
2018-06-14T09:39:35.307Z,32.05
2018-06-14T09:40:35.299Z,31.77
2018-06-14T09:41:35.294Z,31.29
2018-06-14T09:42:35.293Z,31.01
2018-06-14T09:43:35.280Z,31.21
2018-06-14T09:44:35.274Z,31.41
2018-06-14T09:45:35.268Z,29.08
2018-06-14T09:46:35.270Z,30.65
2018-06-14T09:47:35.257Z,29.11
2018-06-14T09:48:35.261Z,28.55
2018-06-14T09:49:35.246Z,30.44
2018-06-14T09:50:35.243Z,26.92
2018-06-14T09:51:35.237Z,26.06
2018-06-14T09:52:35.235Z,25.78
2018-06-14T09:53:35.232Z,26.59
2018-06-14T09:54:35.222Z,25.61
2018-06-14T09:55:35.220Z,25.42
2018-06-14T09:56:35.214Z,25.52
2018-06-14T09:57:35.214Z,23.27
2018-06-14T09:58:35.209Z,22.88
2018-06-14T09:59:35.207Z,24.54
2018-06-14T10:00:35.196Z,23.19
2018-06-14T10:01:35.192Z,22.70
2018-06-14T10:02:35.194Z,22.19
2018-06-14T10:03:35.192Z,24.04
2018-06-14T10:04:35.184Z,23.75
2018-06-14T10:05:35.179Z,23.85
2018-06-14T10:06:35.178Z,23.26
2018-06-14T10:07:35.174Z,23.77
2018-06-14T10:08:35.169Z,23.39
2018-06-14T10:09:35.168Z,22.31
2018-06-14T10:10:35.164Z,22.44
2018-06-14T10:11:35.162Z,22.85
2018-06-14T10:12:35.159Z,21.84
2018-06-14T10:13:35.158Z,22.00
2018-06-14T10:14:35.162Z,25.70
2018-06-14T10:15:35.154Z,26.95
2018-06-14T10:16:35.156Z,25.36
2018-06-14T10:17:35.145Z,27.01
2018-06-14T10:18:35.141Z,28.26
2018-06-14T10:19:35.139Z,27.95
2018-06-14T10:20:35.134Z,28.63
2018-06-14T10:21:35.129Z,29.19
2018-06-14T10:22:35.127Z,30.93
2018-06-14T10:23:35.124Z,29.55
2018-06-14T10:24:35.120Z,29.05
2018-06-14T10:25:35.116Z,29.72
2018-06-14T10:26:35.110Z,30.79
2018-06-14T10:27:35.116Z,31.85
2018-06-14T10:28:35.105Z,30.48
2018-06-14T10:29:35.106Z,31.55
2018-06-14T10:30:35.095Z,33.09
2018-06-14T10:31:35.092Z,34.16
2018-06-14T10:32:35.084Z,33.49
2018-06-14T10:33:35.079Z,32.41
2018-06-14T10:34:35.081Z,32.89
2018-06-14T10:35:35.072Z,32.60
2018-06-14T10:36:35.065Z,33.96
2018-06-14T10:37:35.060Z,33.96
2018-06-14T10:38:35.064Z,31.82
2018-06-14T10:39:35.050Z,33.57
2018-06-14T10:40:35.044Z,32.89
2018-06-14T10:41:35.038Z,31.24
2018-06-14T10:42:35.033Z,31.13
2018-06-14T10:43:35.067Z,32.96
2018-06-14T10:44:35.022Z,33.62
2018-06-14T10:45:35.017Z,33.14
2018-06-14T10:46:35.009Z,34.11
2018-06-14T10:47:35.012Z,36.43
2018-06-14T10:48:34.995Z,37.81
2018-06-14T10:49:34.993Z,35.86
2018-06-14T10:50:34.987Z,34.72
2018-06-14T10:51:34.979Z,32.97
2018-06-14T10:52:34.973Z,35.03
2018-06-14T10:53:34.964Z,34.16
2018-06-14T10:54:34.958Z,34.14
2018-06-14T10:55:34.961Z,36.77
2018-06-14T10:56:34.945Z,34.83
2018-06-14T10:57:34.939Z,32.59
2018-06-14T10:58:34.934Z,33.46
2018-06-14T10:59:34.926Z,33.65
2018-06-14T11:00:34.917Z,33.65
2018-06-14T11:01:34.909Z,32.97
2018-06-14T11:02:34.907Z,32.39
2018-06-14T11:03:34.898Z,32.67
2018-06-14T11:04:34.890Z,34.12
2018-06-14T11:05:34.884Z,36.16
2018-06-14T11:06:34.878Z,34.41
2018-06-14T11:07:34.868Z,34.22
2018-06-14T11:08:34.859Z,32.57
2018-06-14T11:09:34.855Z,32.47
2018-06-14T11:10:34.851Z,34.31
2018-06-14T11:11:34.841Z,34.91
2018-06-14T11:12:34.835Z,33.54
2018-06-14T11:13:34.831Z,33.44
2018-06-14T11:14:34.817Z,33.54
2018-06-14T11:15:34.809Z,33.44
2018-06-14T11:16:34.800Z,33.15
2018-06-14T11:17:34.792Z,33.92
2018-06-14T11:18:34.786Z,32.09
2018-06-14T11:19:34.783Z,32.86
2018-06-14T11:20:34.769Z,33.04
2018-06-14T11:21:34.762Z,32.75
2018-06-14T11:22:34.754Z,33.14
2018-06-14T11:23:34.747Z,34.97
2018-06-14T11:24:34.740Z,36.62
2018-06-14T11:25:34.731Z,34.11
2018-06-14T11:26:34.726Z,34.49
2018-06-14T11:27:34.722Z,34.59
2018-06-14T11:28:34.717Z,34.89
2018-06-14T11:29:34.704Z,33.83
2018-06-14T11:30:34.693Z,33.92
2018-06-14T11:31:34.686Z,34.49
2018-06-14T11:32:34.676Z,36.35
2018-06-14T11:33:34.668Z,37.13
2018-06-14T11:34:34.662Z,35.96
2018-06-14T11:35:34.653Z,35.86
2018-06-14T11:36:34.644Z,35.19
2018-06-14T11:37:34.637Z,34.23
2018-06-14T11:38:34.627Z,34.91
2018-06-14T11:39:34.629Z,34.14
2018-06-14T11:40:34.614Z,34.33
2018-06-14T11:41:34.602Z,33.07
2018-06-14T11:42:34.598Z,32.87
2018-06-14T11:43:34.589Z,33.26
2018-06-14T11:44:34.579Z,32.68
2018-06-14T11:45:34.574Z,34.93
2018-06-14T11:46:34.566Z,32.70
2018-06-14T11:47:34.554Z,33.18
2018-06-14T11:48:34.547Z,33.76
2018-06-14T11:49:34.547Z,32.02
2018-06-14T11:50:34.531Z,32.60
2018-06-14T11:51:34.522Z,33.01
2018-06-14T11:52:34.515Z,33.01
2018-06-14T11:53:34.505Z,33.39
2018-06-14T11:54:34.499Z,33.39
2018-06-14T11:55:34.494Z,31.53
2018-06-14T11:56:34.486Z,31.34
2018-06-14T11:57:34.477Z,33.09
2018-06-14T11:58:34.469Z,32.70
2018-06-14T11:59:34.461Z,34.27
2018-06-14T12:00:34.455Z,31.76
2018-06-14T12:01:34.450Z,32.35
2018-06-14T12:02:34.445Z,31.48
2018-06-14T12:03:34.436Z,31.48
2018-06-14T12:04:34.428Z,31.50
2018-06-14T12:05:34.425Z,30.72
2018-06-14T12:06:34.418Z,30.83
2018-06-14T12:07:34.413Z,28.59
2018-06-14T12:08:34.407Z,30.26
2018-06-14T12:09:34.409Z,26.87
2018-06-14T12:10:34.401Z,25.80
2018-06-14T12:11:34.395Z,26.01
2018-06-14T12:12:34.402Z,25.71
2018-06-14T12:13:34.384Z,25.23
2018-06-14T12:14:34.382Z,26.41
2018-06-14T12:15:34.380Z,26.91
2018-06-14T12:16:34.382Z,27.22
2018-06-14T12:17:34.375Z,25.47
2018-06-14T12:18:34.369Z,25.29
2018-06-14T12:19:34.370Z,25.60
2018-06-14T12:20:34.365Z,25.32
2018-06-14T12:21:34.361Z,23.94
2018-06-14T12:22:34.358Z,24.44
2018-06-14T12:23:34.359Z,23.58
2018-06-14T12:24:34.354Z,22.71
2018-06-14T12:25:34.353Z,22.12
2018-06-14T12:26:34.357Z,22.72
2018-06-14T12:27:34.347Z,21.14
2018-06-14T12:28:34.343Z,21.64
2018-06-14T12:29:34.346Z,21.24
2018-06-14T12:30:34.342Z,22.91
2018-06-14T12:31:34.363Z,23.41
2018-06-14T12:32:34.342Z,23.02
2018-06-14T12:33:34.332Z,22.14
2018-06-14T12:34:34.330Z,22.44
2018-06-14T12:35:34.332Z,21.75
2018-06-14T12:36:34.328Z,21.47
2018-06-14T12:37:34.378Z,22.64
2018-06-14T12:38:34.331Z,21.16
2018-06-14T12:39:34.322Z,20.76
2018-06-14T12:40:34.324Z,21.06
2018-06-14T12:41:34.318Z,24.09
2018-06-14T12:42:34.315Z,24.48
2018-06-14T12:43:34.315Z,22.91
2018-06-14T12:44:34.309Z,21.84
2018-06-14T12:45:34.311Z,22.91
2018-06-14T12:46:34.305Z,23.11
2018-06-14T12:47:34.303Z,22.71
2018-06-14T12:48:34.298Z,24.08
2018-06-14T12:49:34.307Z,23.88
2018-06-14T12:50:34.293Z,22.89
2018-06-14T12:51:34.290Z,22.00
2018-06-14T12:52:34.289Z,23.58